createdAt,value
2023-05-06T00:00:18.007Z,95262.00
2023-05-06T00:01:17.954Z,95260.00
2023-05-06T00:02:17.795Z,95258.00
2023-05-06T00:03:17.888Z,95256.00
2023-05-06T00:04:17.912Z,95256.00
2023-05-06T00:05:17.931Z,95252.00
2023-05-06T00:06:18.012Z,95252.00
2023-05-06T00:07:18.055Z,95252.00
2023-05-06T00:08:18.085Z,95252.00
2023-05-06T00:09:18.164Z,95250.00
2023-05-06T00:10:18.197Z,95250.00
2023-05-06T00:11:18.257Z,95250.00
2023-05-06T00:12:18.346Z,95252.00
2023-05-06T00:13:18.432Z,95248.00
2023-05-06T00:14:18.437Z,95246.00
2023-05-06T00:15:18.573Z,95248.00
2023-05-06T00:16:18.635Z,95248.00
2023-05-06T00:17:18.626Z,95248.00
2023-05-06T00:18:18.677Z,95248.00
2023-05-06T00:19:18.865Z,95248.00
2023-05-06T00:20:18.797Z,95246.00
2023-05-06T00:21:18.845Z,95246.00
2023-05-06T00:22:18.900Z,95246.00
2023-05-06T00:23:18.937Z,95246.00
2023-05-06T00:24:18.952Z,95244.00
2023-05-06T00:25:19.001Z,95240.00
2023-05-06T00:26:19.044Z,95238.00
2023-05-06T00:27:19.086Z,95240.00
2023-05-06T00:28:19.149Z,95240.00
2023-05-06T00:29:19.218Z,95242.00
2023-05-06T00:30:19.259Z,95242.00
2023-05-06T00:31:19.326Z,95240.00
2023-05-06T00:32:19.355Z,95236.00
2023-05-06T00:33:19.387Z,95236.00
2023-05-06T00:34:19.440Z,95234.00
2023-05-06T00:35:19.543Z,95234.00
2023-05-06T00:36:19.645Z,95234.00
2023-05-06T00:37:19.552Z,95232.00
2023-05-06T00:38:19.594Z,95234.00
2023-05-06T00:39:19.640Z,95232.00
2023-05-06T00:40:19.658Z,95232.00
2023-05-06T00:41:19.666Z,95230.00
2023-05-06T00:42:19.709Z,95230.00
2023-05-06T00:43:19.762Z,95228.00
2023-05-06T00:44:20.632Z,95228.00
2023-05-06T00:45:19.800Z,95228.00
2023-05-06T00:46:19.836Z,95230.00
2023-05-06T00:47:19.868Z,95226.00
2023-05-06T00:48:19.901Z,95226.00
2023-05-06T00:49:19.907Z,95226.00
2023-05-06T00:50:19.963Z,95228.00
2023-05-06T00:51:20.048Z,95226.00
2023-05-06T00:52:20.015Z,95226.00
2023-05-06T00:53:20.036Z,95224.00
2023-05-06T00:54:20.068Z,95221.00
2023-05-06T00:55:20.115Z,95221.00
2023-05-06T00:56:20.895Z,95217.00
2023-05-06T00:57:20.123Z,95217.00
2023-05-06T00:58:20.517Z,95217.00
2023-05-06T00:59:20.604Z,95217.00
2023-05-06T01:00:20.252Z,95217.00
2023-05-06T01:01:20.439Z,95219.00
2023-05-06T01:02:20.450Z,95217.00
2023-05-06T01:03:20.540Z,95219.00
2023-05-06T01:04:20.475Z,95221.00
2023-05-06T01:05:20.544Z,95219.00
2023-05-06T01:06:20.605Z,95219.00
2023-05-06T01:07:20.646Z,95217.00
2023-05-06T01:08:20.610Z,95213.00
2023-05-06T01:09:20.651Z,95213.00
2023-05-06T01:10:20.706Z,95209.00
2023-05-06T01:11:20.698Z,95211.00
2023-05-06T01:12:20.721Z,95211.00
2023-05-06T01:13:20.833Z,95209.00
2023-05-06T01:14:20.748Z,95209.00
2023-05-06T01:15:20.764Z,95207.00
2023-05-06T01:16:20.790Z,95209.00
2023-05-06T01:17:20.738Z,95211.00
2023-05-06T01:18:20.798Z,95207.00
2023-05-06T01:19:20.811Z,95211.00
2023-05-06T01:20:20.779Z,95213.00
2023-05-06T01:21:20.776Z,95209.00
2023-05-06T01:22:20.772Z,95209.00
2023-05-06T01:23:20.849Z,95211.00
2023-05-06T01:24:20.794Z,95211.00
2023-05-06T01:25:20.822Z,95211.00
2023-05-06T01:26:20.845Z,95211.00
2023-05-06T01:27:20.859Z,95211.00
2023-05-06T01:28:20.852Z,95211.00
2023-05-06T01:29:20.874Z,95207.00
2023-05-06T01:30:20.886Z,95205.00
2023-05-06T01:31:20.886Z,95207.00
2023-05-06T01:32:20.878Z,95205.00
2023-05-06T01:33:20.898Z,95209.00
2023-05-06T01:34:20.828Z,95207.00
2023-05-06T01:35:20.831Z,95207.00
2023-05-06T01:36:20.870Z,95209.00
2023-05-06T01:37:20.905Z,95209.00
2023-05-06T01:38:20.878Z,95211.00
2023-05-06T01:39:20.935Z,95209.00
2023-05-06T01:40:20.870Z,95209.00
2023-05-06T01:41:20.840Z,95211.00
2023-05-06T01:42:20.861Z,95209.00
2023-05-06T01:43:20.838Z,95211.00
2023-05-06T01:44:20.838Z,95209.00
2023-05-06T01:45:20.892Z,95209.00
2023-05-06T01:46:20.878Z,95209.00
2023-05-06T01:47:20.822Z,95209.00
2023-05-06T01:48:20.827Z,95209.00
2023-05-06T01:49:20.836Z,95209.00
2023-05-06T01:50:20.829Z,95213.00
2023-05-06T01:51:20.839Z,95211.00
2023-05-06T01:52:20.795Z,95213.00
2023-05-06T01:53:20.787Z,95213.00
2023-05-06T01:54:20.793Z,95213.00
2023-05-06T01:55:20.878Z,95213.00
2023-05-06T01:56:20.817Z,95213.00
2023-05-06T01:57:20.794Z,95215.00
2023-05-06T01:58:20.807Z,95213.00
2023-05-06T01:59:20.818Z,95217.00
2023-05-06T02:00:20.799Z,95217.00
2023-05-06T02:01:20.803Z,95213.00
2023-05-06T02:02:20.791Z,95217.00
2023-05-06T02:03:20.861Z,95215.00
2023-05-06T02:04:20.789Z,95215.00
2023-05-06T02:05:20.797Z,95217.00
2023-05-06T02:06:20.769Z,95211.00
2023-05-06T02:07:20.772Z,95215.00
2023-05-06T02:08:20.775Z,95213.00
2023-05-06T02:09:20.779Z,95213.00
2023-05-06T02:10:20.763Z,95213.00
2023-05-06T02:11:20.778Z,95211.00
2023-05-06T02:12:20.756Z,95209.00
2023-05-06T02:13:20.867Z,95211.00
2023-05-06T02:14:20.763Z,95211.00
2023-05-06T02:15:20.765Z,95209.00
2023-05-06T02:16:20.781Z,95207.00
2023-05-06T02:17:20.741Z,95209.00
2023-05-06T02:18:20.731Z,95209.00
2023-05-06T02:19:20.754Z,95209.00
2023-05-06T02:20:20.716Z,95207.00
2023-05-06T02:21:20.697Z,95205.00
2023-05-06T02:22:20.743Z,95205.00
2023-05-06T02:23:20.720Z,95205.00
2023-05-06T02:24:20.683Z,95207.00
2023-05-06T02:25:20.732Z,95207.00
2023-05-06T02:26:20.694Z,95207.00
2023-05-06T02:27:20.711Z,95207.00
2023-05-06T02:28:20.687Z,95205.00
2023-05-06T02:29:21.662Z,95209.00
2023-05-06T02:30:20.690Z,95207.00
2023-05-06T02:31:20.722Z,95207.00
2023-05-06T02:32:20.706Z,95205.00
2023-05-06T02:33:20.678Z,95205.00
2023-05-06T02:34:20.712Z,95203.00
2023-05-06T02:35:20.702Z,95203.00
2023-05-06T02:36:20.685Z,95201.00
2023-05-06T02:37:20.690Z,95201.00
2023-05-06T02:38:20.677Z,95199.00
2023-05-06T02:39:20.750Z,95199.00
2023-05-06T02:40:20.699Z,95197.00
2023-05-06T02:41:20.678Z,95195.00
2023-05-06T02:42:20.707Z,95195.00
2023-05-06T02:43:20.726Z,95191.00
2023-05-06T02:44:20.651Z,95193.00
2023-05-06T02:45:20.664Z,95193.00
2023-05-06T02:46:20.746Z,95191.00
2023-05-06T02:47:20.693Z,95195.00
2023-05-06T02:48:20.672Z,95193.00
2023-05-06T02:49:20.642Z,95193.00
2023-05-06T02:50:20.631Z,95197.00
2023-05-06T02:51:20.664Z,95197.00
2023-05-06T02:52:20.660Z,95197.00
2023-05-06T02:53:20.675Z,95197.00
2023-05-06T02:54:20.665Z,95197.00
2023-05-06T02:55:20.650Z,95195.00
2023-05-06T02:56:20.668Z,95193.00
2023-05-06T02:57:20.638Z,95193.00
2023-05-06T02:58:20.631Z,95193.00
2023-05-06T02:59:20.765Z,95195.00
2023-05-06T03:00:20.644Z,95195.00
2023-05-06T03:01:20.674Z,95193.00
2023-05-06T03:02:20.625Z,95193.00
2023-05-06T03:03:20.645Z,95191.00
2023-05-06T03:04:20.647Z,95193.00
2023-05-06T03:05:20.623Z,95193.00
2023-05-06T03:06:20.628Z,95193.00
2023-05-06T03:07:20.631Z,95195.00
2023-05-06T03:08:20.614Z,95195.00
2023-05-06T03:09:20.640Z,95195.00
2023-05-06T03:10:20.622Z,95193.00
2023-05-06T03:11:20.593Z,95193.00
2023-05-06T03:12:20.612Z,95197.00
2023-05-06T03:13:20.647Z,95195.00
2023-05-06T03:14:20.622Z,95191.00
2023-05-06T03:15:20.662Z,95191.00
2023-05-06T03:16:20.617Z,95193.00
2023-05-06T03:17:20.598Z,95191.00
2023-05-06T03:18:20.584Z,95195.00
2023-05-06T03:19:20.608Z,95193.00
2023-05-06T03:20:20.620Z,95195.00
2023-05-06T03:21:20.616Z,95193.00
2023-05-06T03:22:20.613Z,95195.00
2023-05-06T03:23:20.598Z,95191.00
2023-05-06T03:24:20.577Z,95195.00
2023-05-06T03:25:20.595Z,95191.00
2023-05-06T03:26:20.589Z,95191.00
2023-05-06T03:27:20.572Z,95189.00
2023-05-06T03:28:20.574Z,95189.00
2023-05-06T03:29:20.562Z,95187.00
2023-05-06T03:30:20.625Z,95187.00
2023-05-06T03:31:20.710Z,95187.00
2023-05-06T03:32:20.574Z,95189.00
2023-05-06T03:33:20.574Z,95191.00
2023-05-06T03:34:20.572Z,95191.00
2023-05-06T03:35:20.552Z,95189.00
2023-05-06T03:36:20.590Z,95189.00
2023-05-06T03:37:20.576Z,95185.00
2023-05-06T03:38:20.582Z,95183.00
2023-05-06T03:39:20.585Z,95183.00
2023-05-06T03:40:20.592Z,95183.00
2023-05-06T03:41:20.572Z,95181.00
2023-05-06T03:42:20.585Z,95183.00
2023-05-06T03:43:20.586Z,95185.00
2023-05-06T03:44:20.598Z,95185.00
2023-05-06T03:45:20.583Z,95179.00
2023-05-06T03:46:20.668Z,95183.00
2023-05-06T03:47:20.750Z,95181.00
2023-05-06T03:48:20.605Z,95183.00
2023-05-06T03:49:20.614Z,95183.00
2023-05-06T03:50:20.585Z,95183.00
2023-05-06T03:51:20.573Z,95185.00
2023-05-06T03:52:20.599Z,95189.00
2023-05-06T03:53:20.621Z,95189.00
2023-05-06T03:54:20.584Z,95191.00
2023-05-06T03:55:20.585Z,95191.00
2023-05-06T03:56:20.590Z,95191.00
2023-05-06T03:57:20.601Z,95189.00
2023-05-06T03:58:20.617Z,95189.00
2023-05-06T03:59:20.606Z,95189.00
2023-05-06T04:00:20.611Z,95189.00
2023-05-06T04:01:20.577Z,95189.00
2023-05-06T04:02:20.667Z,95191.00
2023-05-06T04:03:20.751Z,95195.00
2023-05-06T04:04:20.610Z,95195.00
2023-05-06T04:05:20.602Z,95197.00
2023-05-06T04:06:20.615Z,95201.00
2023-05-06T04:07:20.630Z,95205.00
2023-05-06T04:08:20.622Z,95205.00
2023-05-06T04:09:20.617Z,95207.00
2023-05-06T04:10:20.636Z,95209.00
2023-05-06T04:11:20.622Z,95211.00
2023-05-06T04:12:20.673Z,95213.00
2023-05-06T04:13:20.692Z,95217.00
2023-05-06T04:14:20.671Z,95219.00
2023-05-06T04:15:20.666Z,95222.00
2023-05-06T04:16:20.690Z,95224.00
2023-05-06T04:17:20.644Z,95228.00
2023-05-06T04:18:20.654Z,95232.00
2023-05-06T04:19:20.790Z,95238.00
2023-05-06T04:20:20.648Z,95238.00
2023-05-06T04:21:20.665Z,95238.00
2023-05-06T04:22:20.650Z,95238.00
2023-05-06T04:23:20.691Z,95238.00
2023-05-06T04:24:20.644Z,95236.00
2023-05-06T04:25:20.636Z,95234.00
2023-05-06T04:26:20.658Z,95232.00
2023-05-06T04:27:20.674Z,95232.00
2023-05-06T04:28:20.693Z,95234.00
2023-05-06T04:29:20.690Z,95232.00
2023-05-06T04:30:20.674Z,95232.00
2023-05-06T04:31:20.684Z,95228.00
2023-05-06T04:32:20.688Z,95226.00
2023-05-06T04:33:20.721Z,95222.00
2023-05-06T04:34:20.684Z,95221.00
2023-05-06T04:35:20.721Z,95222.00
2023-05-06T04:36:20.729Z,95224.00
2023-05-06T04:37:20.709Z,95226.00
2023-05-06T04:38:20.716Z,95228.00
2023-05-06T04:39:20.709Z,95226.00
2023-05-06T04:40:20.730Z,95232.00
2023-05-06T04:41:20.729Z,95234.00
2023-05-06T04:42:20.844Z,95230.00
2023-05-06T04:43:20.748Z,95228.00
2023-05-06T04:44:20.760Z,95228.00
2023-05-06T04:45:20.760Z,95226.00
2023-05-06T04:46:20.817Z,95230.00
2023-05-06T04:47:20.768Z,95234.00
2023-05-06T04:48:20.778Z,95234.00
2023-05-06T04:49:20.787Z,95236.00
2023-05-06T04:50:20.762Z,95232.00
2023-05-06T04:51:20.847Z,95226.00
2023-05-06T04:52:20.782Z,95228.00
2023-05-06T04:53:20.823Z,95226.00
2023-05-06T04:54:20.813Z,95226.00
2023-05-06T04:55:20.844Z,95228.00
2023-05-06T04:56:20.788Z,95226.00
2023-05-06T04:57:20.802Z,95230.00
2023-05-06T04:58:20.809Z,95232.00
2023-05-06T04:59:20.831Z,95232.00
2023-05-06T05:00:20.796Z,95232.00
2023-05-06T05:01:20.963Z,95230.00
2023-05-06T05:02:20.901Z,95228.00
2023-05-06T05:03:20.905Z,95230.00
2023-05-06T05:04:20.841Z,95236.00
2023-05-06T05:05:20.829Z,95236.00
2023-05-06T05:06:20.848Z,95236.00
2023-05-06T05:07:20.917Z,95242.00
2023-05-06T05:08:20.870Z,95240.00
2023-05-06T05:09:20.840Z,95244.00
2023-05-06T05:10:20.851Z,95240.00
2023-05-06T05:11:20.836Z,95242.00
2023-05-06T05:12:20.842Z,95242.00
2023-05-06T05:13:20.882Z,95240.00
2023-05-06T05:14:20.853Z,95242.00
2023-05-06T05:15:20.826Z,95240.00
2023-05-06T05:16:20.908Z,95236.00
2023-05-06T05:17:20.862Z,95234.00
2023-05-06T05:18:20.862Z,95232.00
2023-05-06T05:19:20.846Z,95238.00
2023-05-06T05:20:20.857Z,95240.00
2023-05-06T05:21:20.865Z,95244.00
2023-05-06T05:22:20.869Z,95246.00
2023-05-06T05:23:20.917Z,95248.00
2023-05-06T05:24:20.891Z,95250.00
2023-05-06T05:25:20.883Z,95252.00
2023-05-06T05:26:20.904Z,95250.00
2023-05-06T05:27:20.882Z,95250.00
2023-05-06T05:28:20.880Z,95248.00
2023-05-06T05:29:20.863Z,95248.00
2023-05-06T05:30:20.899Z,95250.00
2023-05-06T05:31:20.940Z,95250.00
2023-05-06T05:32:20.877Z,95248.00
2023-05-06T05:33:20.975Z,95246.00
2023-05-06T05:34:20.882Z,95246.00
2023-05-06T05:35:20.900Z,95248.00
2023-05-06T05:36:20.880Z,95244.00
2023-05-06T05:37:20.871Z,95246.00
2023-05-06T05:38:20.879Z,95242.00
2023-05-06T05:39:20.936Z,95244.00
2023-05-06T05:40:20.897Z,95244.00
2023-05-06T05:41:20.862Z,95244.00
2023-05-06T05:42:20.872Z,95244.00
2023-05-06T05:43:20.880Z,95246.00
2023-05-06T05:44:20.865Z,95242.00
2023-05-06T05:45:20.870Z,95244.00
2023-05-06T05:46:20.939Z,95242.00
2023-05-06T05:47:20.895Z,95240.00
2023-05-06T05:48:20.893Z,95236.00
2023-05-06T05:49:20.878Z,95230.00
2023-05-06T05:50:20.868Z,95228.00
2023-05-06T05:51:20.870Z,95230.00
2023-05-06T05:52:20.875Z,95234.00
2023-05-06T05:53:20.894Z,95242.00
2023-05-06T05:54:20.885Z,95246.00
2023-05-06T05:55:20.907Z,95244.00
2023-05-06T05:56:20.924Z,95234.00
2023-05-06T05:57:20.865Z,95228.00
2023-05-06T05:58:20.897Z,95224.00
2023-05-06T05:59:20.879Z,95224.00
2023-05-06T06:00:20.893Z,95226.00
2023-05-06T06:01:20.866Z,95224.00
2023-05-06T06:02:20.980Z,95224.00
2023-05-06T06:03:20.974Z,95224.00
2023-05-06T06:04:20.915Z,95226.00
2023-05-06T06:05:20.880Z,95228.00
2023-05-06T06:06:20.903Z,95230.00
2023-05-06T06:07:20.907Z,95230.00
2023-05-06T06:08:20.885Z,95230.00
2023-05-06T06:09:20.944Z,95232.00
2023-05-06T06:10:20.887Z,95230.00
2023-05-06T06:11:20.978Z,95230.00
2023-05-06T06:12:20.882Z,95230.00
2023-05-06T06:13:20.976Z,95226.00
2023-05-06T06:14:20.861Z,95226.00
2023-05-06T06:15:20.902Z,95232.00
2023-05-06T06:16:20.947Z,95234.00
2023-05-06T06:17:20.881Z,95234.00
2023-05-06T06:18:20.893Z,95236.00
2023-05-06T06:19:20.904Z,95236.00
2023-05-06T06:20:20.885Z,95234.00
2023-05-06T06:21:20.906Z,95236.00
2023-05-06T06:22:20.869Z,95238.00
2023-05-06T06:23:20.904Z,95238.00
2023-05-06T06:24:20.851Z,95238.00
2023-05-06T06:25:20.895Z,95240.00
2023-05-06T06:26:20.860Z,95240.00
2023-05-06T06:27:20.922Z,95238.00
2023-05-06T06:28:20.837Z,95238.00
2023-05-06T06:29:20.864Z,95238.00
2023-05-06T06:30:20.849Z,95232.00
2023-05-06T06:31:20.850Z,95230.00
2023-05-06T06:32:20.875Z,95224.00
2023-05-06T06:33:20.844Z,95226.00
2023-05-06T06:34:20.836Z,95226.00
2023-05-06T06:35:20.863Z,95224.00
2023-05-06T06:36:20.863Z,95226.00
2023-05-06T06:37:20.831Z,95224.00
2023-05-06T06:38:20.836Z,95226.00
2023-05-06T06:39:20.831Z,95226.00
2023-05-06T06:40:20.816Z,95221.00
2023-05-06T06:41:20.799Z,95222.00
2023-05-06T06:42:20.794Z,95222.00
2023-05-06T06:43:20.812Z,95222.00
2023-05-06T06:44:20.821Z,95222.00
2023-05-06T06:45:20.789Z,95222.00
2023-05-06T06:46:20.917Z,95224.00
2023-05-06T06:47:20.802Z,95222.00
2023-05-06T06:48:20.833Z,95224.00
2023-05-06T06:49:20.855Z,95222.00
2023-05-06T06:50:20.874Z,95226.00
2023-05-06T06:51:20.852Z,95226.00
2023-05-06T06:52:20.848Z,95224.00
2023-05-06T06:53:20.919Z,95224.00
2023-05-06T06:54:20.877Z,95224.00
2023-05-06T06:55:20.872Z,95222.00
2023-05-06T06:56:20.867Z,95222.00
2023-05-06T06:57:20.910Z,95221.00
2023-05-06T06:58:20.864Z,95224.00
2023-05-06T06:59:20.875Z,95219.00
2023-05-06T07:00:20.932Z,95221.00
2023-05-06T07:01:20.958Z,95221.00
2023-05-06T07:02:20.968Z,95221.00
2023-05-06T07:03:20.970Z,95219.00
2023-05-06T07:04:20.992Z,95219.00
2023-05-06T07:05:21.033Z,95219.00
2023-05-06T07:06:21.033Z,95217.00
2023-05-06T07:07:21.037Z,95215.00
2023-05-06T07:08:21.097Z,95213.00
2023-05-06T07:09:21.113Z,95211.00
2023-05-06T07:10:21.117Z,95213.00
2023-05-06T07:11:21.173Z,95213.00
2023-05-06T07:12:21.178Z,95213.00
2023-05-06T07:13:21.299Z,95211.00
2023-05-06T07:14:21.260Z,95217.00
2023-05-06T07:15:21.358Z,95215.00
2023-05-06T07:16:21.393Z,95215.00
2023-05-06T07:17:21.373Z,95211.00
2023-05-06T07:18:21.464Z,95211.00
2023-05-06T07:19:21.425Z,95211.00
2023-05-06T07:20:21.472Z,95207.00
2023-05-06T07:21:21.496Z,95209.00
2023-05-06T07:22:21.530Z,95207.00
2023-05-06T07:23:21.591Z,95207.00
2023-05-06T07:24:21.634Z,95209.00
2023-05-06T07:25:21.636Z,95209.00
2023-05-06T07:26:21.711Z,95207.00
2023-05-06T07:27:21.870Z,95207.00
2023-05-06T07:28:21.778Z,95207.00
2023-05-06T07:29:21.851Z,95207.00
2023-05-06T07:30:23.342Z,95209.00
2023-05-06T07:31:22.024Z,95207.00
2023-05-06T07:32:21.984Z,95207.00
2023-05-06T07:33:21.988Z,95209.00
2023-05-06T07:34:21.992Z,95207.00
2023-05-06T07:35:22.054Z,95207.00
2023-05-06T07:36:22.147Z,95207.00
2023-05-06T07:37:22.205Z,95207.00
2023-05-06T07:38:22.225Z,95205.00
2023-05-06T07:39:22.283Z,95207.00
2023-05-06T07:40:22.348Z,95203.00
2023-05-06T07:41:22.418Z,95203.00
2023-05-06T07:42:22.473Z,95201.00
2023-05-06T07:43:22.545Z,95205.00
2023-05-06T07:44:22.609Z,95207.00
2023-05-06T07:45:22.665Z,95205.00
2023-05-06T07:46:22.776Z,95205.00
2023-05-06T07:47:22.931Z,95207.00
2023-05-06T07:48:22.882Z,95203.00
2023-05-06T07:49:22.906Z,95201.00
2023-05-06T07:50:23.004Z,95203.00
2023-05-06T07:51:23.031Z,95201.00
2023-05-06T07:52:23.067Z,95203.00
2023-05-06T07:53:23.130Z,95203.00
2023-05-06T07:54:23.206Z,95199.00
2023-05-06T07:55:23.236Z,95197.00
2023-05-06T07:56:23.279Z,95197.00
2023-05-06T07:57:23.321Z,95197.00
2023-05-06T07:58:23.380Z,95199.00
2023-05-06T07:59:23.455Z,95195.00
2023-05-06T08:00:23.489Z,95197.00
2023-05-06T08:01:23.550Z,95197.00
2023-05-06T08:02:23.732Z,95197.00
2023-05-06T08:03:23.870Z,95195.00
2023-05-06T08:04:23.705Z,95197.00
2023-05-06T08:05:23.772Z,95199.00
2023-05-06T08:06:23.836Z,95197.00
2023-05-06T08:07:23.887Z,95197.00
2023-05-06T08:08:23.911Z,95195.00
2023-05-06T08:09:23.951Z,95195.00
2023-05-06T08:10:24.025Z,95193.00
2023-05-06T08:11:24.075Z,95197.00
2023-05-06T08:12:24.163Z,95197.00
2023-05-06T08:13:24.211Z,95191.00
2023-05-06T08:14:24.233Z,95193.00
2023-05-06T08:15:24.297Z,95199.00
2023-05-06T08:16:25.501Z,95203.00
2023-05-06T08:17:24.403Z,95203.00
2023-05-06T08:18:24.464Z,95199.00
2023-05-06T08:19:24.750Z,95205.00
2023-05-06T08:20:24.532Z,95203.00
2023-05-06T08:21:24.574Z,95203.00
2023-05-06T08:22:24.661Z,95203.00
2023-05-06T08:23:24.695Z,95203.00
2023-05-06T08:24:24.711Z,95205.00
2023-05-06T08:25:24.762Z,95203.00
2023-05-06T08:26:24.798Z,95205.00
2023-05-06T08:27:24.869Z,95207.00
2023-05-06T08:28:25.458Z,95203.00
2023-05-06T08:29:24.940Z,95205.00
2023-05-06T08:30:24.965Z,95209.00
2023-05-06T08:31:25.071Z,95207.00
2023-05-06T08:32:25.278Z,95205.00
2023-05-06T08:33:25.162Z,95209.00
2023-05-06T08:34:25.151Z,95211.00
2023-05-06T08:35:25.292Z,95209.00
2023-05-06T08:36:25.281Z,95207.00
2023-05-06T08:37:25.314Z,95207.00
2023-05-06T08:38:25.377Z,95205.00
2023-05-06T08:39:25.432Z,95205.00
2023-05-06T08:40:25.426Z,95205.00
2023-05-06T08:41:25.467Z,95209.00
2023-05-06T08:42:25.528Z,95209.00
2023-05-06T08:43:25.587Z,95207.00
2023-05-06T08:44:25.668Z,95211.00
2023-05-06T08:45:27.394Z,95213.00
2023-05-06T08:46:25.713Z,95211.00
2023-05-06T08:47:25.698Z,95217.00
2023-05-06T08:48:25.669Z,95213.00
2023-05-06T08:49:25.662Z,95213.00
2023-05-06T08:50:25.662Z,95215.00
2023-05-06T08:51:26.169Z,95213.00
2023-05-06T08:52:25.656Z,95213.00
2023-05-06T08:53:25.632Z,95209.00
2023-05-06T08:54:25.600Z,95209.00
2023-05-06T08:55:25.600Z,95213.00
2023-05-06T08:56:25.598Z,95211.00
2023-05-06T08:57:25.569Z,95209.00
2023-05-06T08:58:25.623Z,95211.00
2023-05-06T08:59:25.578Z,95211.00
2023-05-06T09:00:25.561Z,95213.00
2023-05-06T09:01:25.592Z,95209.00
2023-05-06T09:02:25.588Z,95215.00
2023-05-06T09:03:25.738Z,95215.00
2023-05-06T09:04:25.517Z,95217.00
2023-05-06T09:05:25.538Z,95219.00
2023-05-06T09:06:25.586Z,95219.00
2023-05-06T09:07:25.515Z,95222.00
2023-05-06T09:08:25.488Z,95222.00
2023-05-06T09:09:25.494Z,95219.00
2023-05-06T09:10:25.504Z,95219.00
2023-05-06T09:11:25.517Z,95219.00
2023-05-06T09:12:25.478Z,95217.00
2023-05-06T09:13:25.457Z,95219.00
2023-05-06T09:14:25.452Z,95219.00
2023-05-06T09:15:25.425Z,95219.00
2023-05-06T09:16:25.476Z,95221.00
2023-05-06T09:17:25.458Z,95221.00
2023-05-06T09:18:25.411Z,95219.00
2023-05-06T09:19:25.409Z,95217.00
2023-05-06T09:20:25.393Z,95217.00
2023-05-06T09:21:25.434Z,95213.00
2023-05-06T09:22:25.563Z,95209.00
2023-05-06T09:23:25.631Z,95209.00
2023-05-06T09:24:25.579Z,95209.00
2023-05-06T09:25:25.633Z,95209.00
2023-05-06T09:26:25.659Z,95207.00
2023-05-06T09:27:25.739Z,95207.00
2023-05-06T09:28:25.760Z,95211.00
2023-05-06T09:29:25.809Z,95205.00
2023-05-06T09:30:25.862Z,95205.00
2023-05-06T09:31:25.975Z,95207.00
2023-05-06T09:32:25.961Z,95203.00
2023-05-06T09:33:25.953Z,95205.00
2023-05-06T09:34:26.027Z,95205.00
2023-05-06T09:35:26.074Z,95205.00
2023-05-06T09:36:26.130Z,95207.00
2023-05-06T09:37:26.150Z,95209.00
2023-05-06T09:38:26.342Z,95207.00
2023-05-06T09:39:26.210Z,95203.00
2023-05-06T09:40:26.255Z,95205.00
2023-05-06T09:41:26.332Z,95207.00
2023-05-06T09:42:26.366Z,95207.00
2023-05-06T09:43:26.405Z,95203.00
2023-05-06T09:44:26.476Z,95203.00
2023-05-06T09:45:26.489Z,95203.00
2023-05-06T09:46:26.533Z,95203.00
2023-05-06T09:47:26.677Z,95205.00
2023-05-06T09:48:26.628Z,95205.00
2023-05-06T09:49:26.690Z,95207.00
2023-05-06T09:50:26.720Z,95207.00
2023-05-06T09:51:26.766Z,95201.00
2023-05-06T09:52:26.799Z,95205.00
2023-05-06T09:53:26.854Z,95203.00
2023-05-06T09:54:26.925Z,95203.00
2023-05-06T09:55:27.247Z,95205.00
2023-05-06T09:56:26.989Z,95201.00
2023-05-06T09:57:27.080Z,95203.00
2023-05-06T09:58:27.095Z,95203.00
2023-05-06T09:59:27.179Z,95201.00
2023-05-06T10:00:27.226Z,95201.00
2023-05-06T10:01:36.052Z,95199.00
2023-05-06T10:02:28.391Z,95201.00
2023-05-06T10:03:27.337Z,95199.00
2023-05-06T10:04:27.309Z,95199.00
2023-05-06T10:05:27.248Z,95201.00
2023-05-06T10:06:27.213Z,95199.00
2023-05-06T10:07:27.213Z,95195.00
2023-05-06T10:08:27.209Z,95193.00
2023-05-06T10:09:27.204Z,95193.00
2023-05-06T10:10:27.177Z,95189.00
2023-05-06T10:11:27.179Z,95191.00
2023-05-06T10:12:27.172Z,95193.00
2023-05-06T10:13:27.247Z,95189.00
2023-05-06T10:14:27.254Z,95187.00
2023-05-06T10:15:27.316Z,95187.00
2023-05-06T10:16:27.432Z,95187.00
2023-05-06T10:17:27.441Z,95187.00
2023-05-06T10:18:27.464Z,95185.00
2023-05-06T10:19:27.501Z,95179.00
2023-05-06T10:20:27.541Z,95179.00
2023-05-06T10:21:27.579Z,95175.00
2023-05-06T10:22:27.649Z,95179.00
2023-05-06T10:23:27.691Z,95175.00
2023-05-06T10:24:27.721Z,95177.00
2023-05-06T10:25:27.795Z,95175.00
2023-05-06T10:26:27.816Z,95174.00
2023-05-06T10:27:27.858Z,95174.00
2023-05-06T10:28:30.969Z,95172.00
2023-05-06T10:29:27.911Z,95170.00
2023-05-06T10:30:27.912Z,95170.00
2023-05-06T10:31:27.927Z,95168.00
2023-05-06T10:32:27.880Z,95166.00
2023-05-06T10:33:28.388Z,95164.00
2023-05-06T10:34:27.860Z,95168.00
2023-05-06T10:35:27.844Z,95164.00
2023-05-06T10:36:27.842Z,95168.00
2023-05-06T10:37:27.851Z,95164.00
2023-05-06T10:38:27.828Z,95166.00
2023-05-06T10:39:27.797Z,95164.00
2023-05-06T10:40:27.824Z,95160.00
2023-05-06T10:41:27.915Z,95160.00
2023-05-06T10:42:27.808Z,95160.00
2023-05-06T10:43:27.900Z,95160.00
2023-05-06T10:44:27.787Z,95158.00
2023-05-06T10:45:27.783Z,95156.00
2023-05-06T10:46:27.805Z,95160.00
2023-05-06T10:47:27.831Z,95158.00
2023-05-06T10:48:27.761Z,95156.00
2023-05-06T10:49:27.796Z,95152.00
2023-05-06T10:50:27.771Z,95152.00
2023-05-06T10:51:27.720Z,95154.00
2023-05-06T10:52:27.714Z,95144.00
2023-05-06T10:53:27.685Z,95140.00
2023-05-06T10:54:27.693Z,95138.00
2023-05-06T10:55:27.700Z,95136.00
2023-05-06T10:56:27.724Z,95138.00
2023-05-06T10:57:27.684Z,95138.00
2023-05-06T10:58:27.648Z,95138.00
2023-05-06T10:59:27.650Z,95132.00
2023-05-06T11:00:27.641Z,95136.00
2023-05-06T11:01:27.694Z,95138.00
2023-05-06T11:02:27.650Z,95138.00
2023-05-06T11:03:27.850Z,95136.00
2023-05-06T11:04:27.638Z,95136.00
2023-05-06T11:05:27.626Z,95136.00
2023-05-06T11:06:27.606Z,95132.00
2023-05-06T11:07:27.617Z,95132.00
2023-05-06T11:08:27.684Z,95130.00
2023-05-06T11:09:27.727Z,95130.00
2023-05-06T11:10:27.753Z,95128.00
2023-05-06T11:11:27.788Z,95130.00
2023-05-06T11:12:27.834Z,95130.00
2023-05-06T11:13:28.155Z,95126.00
2023-05-06T11:14:27.908Z,95128.00
2023-05-06T11:15:28.082Z,95126.00
2023-05-06T11:16:28.033Z,95128.00
2023-05-06T11:17:28.128Z,95126.00
2023-05-06T11:18:28.106Z,95128.00
2023-05-06T11:19:28.129Z,95126.00
2023-05-06T11:20:28.166Z,95128.00
2023-05-06T11:21:28.180Z,95126.00
2023-05-06T11:22:28.237Z,95126.00
2023-05-06T11:23:28.260Z,95126.00
2023-05-06T11:24:28.339Z,95126.00
2023-05-06T11:25:28.352Z,95128.00
2023-05-06T11:26:28.430Z,95130.00
2023-05-06T11:27:28.426Z,95128.00
2023-05-06T11:28:28.467Z,95128.00
2023-05-06T11:29:28.508Z,95130.00
2023-05-06T11:30:28.555Z,95130.00
2023-05-06T11:31:28.775Z,95128.00
2023-05-06T11:32:28.636Z,95126.00
2023-05-06T11:33:28.675Z,95126.00
2023-05-06T11:34:28.738Z,95124.00
2023-05-06T11:35:28.757Z,95124.00
2023-05-06T11:36:28.790Z,95126.00
2023-05-06T11:37:28.919Z,95126.00
2023-05-06T11:38:28.895Z,95126.00
2023-05-06T11:39:28.937Z,95126.00
2023-05-06T11:40:28.930Z,95124.00
2023-05-06T11:41:28.996Z,95124.00
2023-05-06T11:42:29.072Z,95124.00
2023-05-06T11:43:29.044Z,95126.00
2023-05-06T11:44:29.100Z,95126.00